Time;durP1;ratioP1;P1;durP2;ratioP2;P2;SDS_P1;SDS_P2;PMS_P1;PMS_P2;Temp;Humidity;BMP_temperature;BMP_pressure;BME280_temperature;BME280_humidity;BME280_pressure;Samples;Min_cycle;Max_cycle;Signal;HPM_P1;HPM_P2
2024/04/18 00:00:16;;;;;;;0.20;0.20;;;;;;;;;;7394317;19;20130;-48
2024/04/18 00:02:42;;;;;;;0.20;0.20;;;;;;;;;;7394444;19;20502;-48
2024/04/18 00:05:08;;;;;;;0.20;0.20;;;;;;;;;;7401174;19;20138;-49
2024/04/18 00:07:34;;;;;;;0.20;0.20;;;;;;;;;;7401723;19;20130;-48
2024/04/18 00:10:00;;;;;;;0.10;0.10;;;;;;;;;;7401725;19;20142;-48
2024/04/18 00:12:26;;;;;;;0.20;0.20;;;;;;;;;;7401578;19;20141;-48
2024/04/18 00:14:52;;;;;;;0.20;0.20;;;;;;;;;;7401288;19;20145;-48
2024/04/18 00:17:18;;;;;;;0.20;0.20;;;;;;;;;;7401496;19;20138;-49
2024/04/18 00:19:44;;;;;;;0.20;0.20;;;;;;;;;;7401356;19;20613;-49
2024/04/18 00:22:10;;;;;;;0.20;0.20;;;;;;;;;;7401293;19;20139;-49
2024/04/18 00:24:37;;;;;;;0.20;0.20;;;;;;;;;;7398575;19;20177;-49
2024/04/18 00:27:04;;;;;;;0.13;0.13;;;;;;;;;;7401311;19;20149;-48
2024/04/18 00:29:30;;;;;;;0.20;0.20;;;;;;;;;;7400956;19;20634;-49
2024/04/18 00:31:56;;;;;;;0.10;0.10;;;;;;;;;;7400808;19;20640;-49
2024/04/18 00:34:22;;;;;;;0.20;0.20;;;;;;;;;;7400906;19;20134;-49
2024/04/18 00:36:48;;;;;;;0.20;0.20;;;;;;;;;;7398599;19;20134;-48
2024/04/18 00:39:14;;;;;;;0.20;0.20;;;;;;;;;;7401037;19;20146;-49
2024/04/18 00:41:41;;;;;;;0.20;0.20;;;;;;;;;;7400896;19;20176;-49
2024/04/18 00:44:07;;;;;;;0.13;0.13;;;;;;;;;;7400661;19;20148;-49
2024/04/18 00:46:34;;;;;;;0.20;0.20;;;;;;;;;;7400570;19;20154;-45
2024/04/18 00:49:00;;;;;;;0.20;0.20;;;;;;;;;;7400735;19;20511;-49
2024/04/18 00:51:26;;;;;;;0.10;0.10;;;;;;;;;;7400161;19;20138;-49
2024/04/18 00:53:52;;;;;;;0.20;0.20;;;;;;;;;;7399942;19;20512;-49
2024/04/18 00:56:18;;;;;;;0.30;0.30;;;;;;;;;;7398586;19;20652;-48
2024/04/18 00:58:44;;;;;;;0.20;0.20;;;;;;;;;;7399996;19;20593;-48
2024/04/18 01:01:10;;;;;;;0.20;0.20;;;;;;;;;;7399603;19;20641;-51
2024/04/18 01:03:36;;;;;;;0.20;0.20;;;;;;;;;;7399798;19;20597;-48
2024/04/18 01:06:03;;;;;;;0.20;0.20;;;;;;;;;;7400008;19;20174;-48
2024/04/18 01:08:29;;;;;;;0.20;0.20;;;;;;;;;;7399614;19;20142;-48
2024/04/18 01:10:55;;;;;;;0.10;0.10;;;;;;;;;;7399968;19;20142;-48
2024/04/18 01:13:21;;;;;;;0.20;0.20;;;;;;;;;;7399913;19;20137;-50
2024/04/18 01:15:47;;;;;;;0.10;0.10;;;;;;;;;;7395926;19;20215;-51
2024/04/18 01:18:13;;;;;;;0.13;0.13;;;;;;;;;;7399469;19;20130;-50
2024/04/18 01:20:39;;;;;;;0.20;0.20;;;;;;;;;;7399434;19;20503;-48
2024/04/18 01:23:05;;;;;;;0.10;0.10;;;;;;;;;;7398208;19;20185;-49
2024/04/18 01:25:31;;;;;;;0.10;0.10;;;;;;;;;;7398077;19;20161;-50
2024/04/18 01:27:57;;;;;;;0.20;0.20;;;;;;;;;;7399275;19;20130;-50
2024/04/18 01:30:23;;;;;;;0.23;0.23;;;;;;;;;;7399110;19;20126;-49
2024/04/18 01:32:49;;;;;;;0.20;0.20;;;;;;;;;;7398701;19;20133;-50
2024/04/18 01:35:15;;;;;;;0.20;0.20;;;;;;;;;;7398888;19;20571;-50
2024/04/18 01:37:41;;;;;;;0.20;0.20;;;;;;;;;;7398952;19;20134;-50
2024/04/18 01:40:08;;;;;;;0.30;0.30;;;;;;;;;;7398865;19;20141;-50
2024/04/18 01:42:34;;;;;;;0.20;0.20;;;;;;;;;;7398630;19;20142;-50
2024/04/18 01:45:00;;;;;;;0.20;0.20;;;;;;;;;;7398570;19;20145;-50
2024/04/18 01:47:26;;;;;;;0.20;0.20;;;;;;;;;;7398185;19;20668;-49
2024/04/18 01:49:52;;;;;;;0.30;0.30;;;;;;;;;;7398349;19;20133;-49
2024/04/18 01:52:18;;;;;;;0.10;0.10;;;;;;;;;;7398549;19;20135;-47
2024/04/18 01:54:44;;;;;;;0.10;0.10;;;;;;;;;;7398200;19;20138;-49
2024/04/18 01:57:10;;;;;;;0.13;0.13;;;;;;;;;;7396399;19;20158;-51
2024/04/18 01:59:36;;;;;;;0.20;0.20;;;;;;;;;;7396435;19;20151;-51
2024/04/18 02:02:02;;;;;;;0.10;0.10;;;;;;;;;;7397669;19;20144;-50
2024/04/18 02:04:28;;;;;;;0.20;0.20;;;;;;;;;;7398071;19;20133;-49
2024/04/18 02:06:54;;;;;;;0.20;0.20;;;;;;;;;;7398199;19;20144;-49
2024/04/18 02:09:21;;;;;;;0.20;0.20;;;;;;;;;;7397756;19;20151;-51
2024/04/18 02:11:47;;;;;;;0.20;0.20;;;;;;;;;;7397885;19;20198;-51
2024/04/18 02:14:13;;;;;;;0.20;0.20;;;;;;;;;;7397581;19;20138;-49
2024/04/18 02:16:39;;;;;;;0.20;0.20;;;;;;;;;;7395941;19;20604;-50
2024/04/18 02:19:05;;;;;;;0.30;0.30;;;;;;;;;;7397360;19;20138;-50
2024/04/18 02:21:31;;;;;;;0.20;0.20;;;;;;;;;;7397279;19;20141;-50
2024/04/18 02:23:57;;;;;;;0.20;0.20;;;;;;;;;;7395890;19;20257;-50
2024/04/18 02:26:23;;;;;;;0.20;0.20;;;;;;;;;;7396078;19;20138;-51
2024/04/18 02:28:49;;;;;;;0.20;0.20;;;;;;;;;;7396897;19;20478;-51
2024/04/18 02:31:15;;;;;;;0.20;0.20;;;;;;;;;;7397032;19;20144;-50
2024/04/18 02:33:41;;;;;;;0.10;0.10;;;;;;;;;;7396810;19;20148;-50
2024/04/18 02:36:09;;;;;;;0.20;0.20;;;;;;;;;;7395991;19;20229;-50
2024/04/18 02:38:35;;;;;;;0.30;0.30;;;;;;;;;;7396952;19;20593;-49
2024/04/18 02:41:02;;;;;;;0.20;0.20;;;;;;;;;;7396797;19;20133;-50
2024/04/18 02:43:28;;;;;;;0.20;0.20;;;;;;;;;;7396986;19;20143;-49
2024/04/18 02:45:54;;;;;;;0.20;0.20;;;;;;;;;;7396855;19;20141;-51
2024/04/18 02:48:20;;;;;;;0.30;0.30;;;;;;;;;;7396326;19;20618;-50
2024/04/18 02:50:46;;;;;;;0.30;0.30;;;;;;;;;;7396612;19;20148;-50
2024/04/18 02:53:12;;;;;;;0.30;0.30;;;;;;;;;;7396180;19;20208;-50
2024/04/18 02:55:38;;;;;;;0.23;0.23;;;;;;;;;;7395842;19;20142;-50
2024/04/18 02:58:04;;;;;;;0.20;0.20;;;;;;;;;;7396524;19;20134;-51
2024/04/18 03:00:35;;;;;;;0.40;0.40;;;;;;;;;;7396064;19;20141;-49
2024/04/18 03:03:01;;;;;;;0.20;0.20;;;;;;;;;;7395930;19;20134;-49
2024/04/18 03:05:27;;;;;;;0.10;0.10;;;;;;;;;;7395737;19;20159;-51
2024/04/18 03:07:57;;;;;;;0.20;0.20;;;;;;;;;;7395980;19;20158;-50
2024/04/18 03:10:23;;;;;;;0.20;0.20;;;;;;;;;;7395770;19;20604;-53
2024/04/18 03:12:53;;;;;;;0.30;0.30;;;;;;;;;;7395858;19;20126;-50
2024/04/18 03:15:19;;;;;;;0.30;0.30;;;;;;;;;;7395888;19;20141;-51
2024/04/18 03:17:45;;;;;;;0.30;0.30;;;;;;;;;;7395541;19;20137;-50
2024/04/18 03:20:11;;;;;;;0.20;0.20;;;;;;;;;;7395873;19;20175;-52
2024/04/18 03:22:41;;;;;;;0.20;0.20;;;;;;;;;;7395451;19;20180;-52
2024/04/18 03:25:07;;;;;;;0.30;0.30;;;;;;;;;;7395278;19;20149;-51
2024/04/18 03:27:34;;;;;;;0.13;0.13;;;;;;;;;;7395781;19;20137;-51
2024/04/18 03:30:00;;;;;;;0.20;0.20;;;;;;;;;;7395587;19;20142;-53
2024/04/18 03:32:26;;;;;;;0.20;0.20;;;;;;;;;;7395727;19;20197;-51
2024/04/18 03:34:52;;;;;;;0.30;0.30;;;;;;;;;;7395076;19;20134;-51
2024/04/18 03:37:21;;;;;;;0.30;0.30;;;;;;;;;;7393738;19;20510;-52
2024/04/18 03:39:47;;;;;;;0.30;0.30;;;;;;;;;;7400603;19;20134;-51
2024/04/18 03:42:13;;;;;;;0.20;0.20;;;;;;;;;;7402625;19;20134;-53
2024/04/18 03:44:41;;;;;;;0.30;0.30;;;;;;;;;;7401304;19;20142;-52
2024/04/18 03:47:07;;;;;;;0.30;0.30;;;;;;;;;;7402475;19;20146;-52
2024/04/18 03:49:33;;;;;;;0.10;0.10;;;;;;;;;;7402129;19;20626;-52
2024/04/18 03:51:59;;;;;;;0.20;0.20;;;;;;;;;;7402320;19;20148;-51
2024/04/18 03:54:25;;;;;;;0.20;0.20;;;;;;;;;;7402567;19;20184;-53
2024/04/18 03:56:51;;;;;;;0.30;0.30;;;;;;;;;;7398786;19;20209;-52
2024/04/18 03:59:17;;;;;;;0.20;0.20;;;;;;;;;;7402557;19;21246;-53
2024/04/18 04:01:43;;;;;;;0.30;0.30;;;;;;;;;;7401646;19;20148;-51
2024/04/18 04:04:09;;;;;;;0.23;0.23;;;;;;;;;;7401723;19;20143;-51
2024/04/18 04:06:35;;;;;;;0.20;0.20;;;;;;;;;;7401744;19;20201;-53
2024/04/18 04:09:01;;;;;;;0.20;0.20;;;;;;;;;;7401664;19;20138;-53
2024/04/18 04:11:27;;;;;;;0.40;0.40;;;;;;;;;;7402072;19;20147;-52
2024/04/18 04:13:54;;;;;;;0.20;0.20;;;;;;;;;;7401592;19;20149;-53
2024/04/18 04:16:20;;;;;;;0.30;0.30;;;;;;;;;;7399482;19;20176;-53
2024/04/18 04:18:50;;;;;;;0.20;0.20;;;;;;;;;;7401333;19;20202;-52
2024/04/18 04:21:17;;;;;;;0.30;0.30;;;;;;;;;;7401393;19;20593;-52
2024/04/18 04:23:43;;;;;;;0.20;0.20;;;;;;;;;;7399179;19;20189;-51
2024/04/18 04:26:09;;;;;;;0.23;0.23;;;;;;;;;;7401095;19;20146;-53
2024/04/18 04:28:35;;;;;;;0.30;0.30;;;;;;;;;;7401414;19;20140;-53
2024/04/18 04:31:01;;;;;;;0.40;0.40;;;;;;;;;;7401408;19;20484;-53
2024/04/18 04:33:28;;;;;;;0.30;0.30;;;;;;;;;;7400731;19;20142;-50
2024/04/18 04:35:55;;;;;;;0.20;0.20;;;;;;;;;;7399522;19;20601;-52
2024/04/18 04:38:21;;;;;;;0.30;0.30;;;;;;;;;;7400752;19;20610;-52
2024/04/18 04:40:47;;;;;;;0.30;0.30;;;;;;;;;;7400687;19;20600;-52
2024/04/18 04:43:13;;;;;;;0.20;0.20;;;;;;;;;;7400077;19;20608;-51
2024/04/18 04:45:39;;;;;;;0.20;0.20;;;;;;;;;;7400562;19;20153;-51
2024/04/18 04:48:05;;;;;;;0.20;0.20;;;;;;;;;;7400792;19;20126;-54
2024/04/18 04:50:31;;;;;;;0.30;0.30;;;;;;;;;;7399825;19;20600;-53
2024/04/18 04:52:57;;;;;;;0.20;0.20;;;;;;;;;;7399870;19;20164;-52
2024/04/18 04:55:23;;;;;;;0.20;0.20;;;;;;;;;;7399763;19;20138;-52
2024/04/18 04:57:49;;;;;;;0.20;0.20;;;;;;;;;;7400057;19;20601;-53
2024/04/18 05:00:15;;;;;;;0.20;0.20;;;;;;;;;;7400103;19;20492;-52
2024/04/18 05:02:41;;;;;;;0.17;0.17;;;;;;;;;;7399867;19;20489;-52
2024/04/18 05:05:08;;;;;;;0.30;0.30;;;;;;;;;;7399495;19;20139;-53
2024/04/18 05:07:35;;;;;;;0.30;0.30;;;;;;;;;;7399940;19;20130;-54
2024/04/18 05:10:01;;;;;;;0.30;0.30;;;;;;;;;;7399938;19;20130;-51
2024/04/18 05:12:27;;;;;;;0.30;0.30;;;;;;;;;;7399655;19;20141;-53
2024/04/18 05:14:53;;;;;;;0.20;0.20;;;;;;;;;;7399881;19;20145;-51
2024/04/18 05:17:20;;;;;;;0.20;0.20;;;;;;;;;;7397558;19;20166;-51
2024/04/18 05:19:46;;;;;;;0.30;0.30;;;;;;;;;;7399645;19;20840;-52
2024/04/18 05:22:12;;;;;;;0.20;0.20;;;;;;;;;;7398451;19;20134;-49
2024/04/18 05:24:38;;;;;;;0.30;0.30;;;;;;;;;;7396742;19;20194;-54
2024/04/18 05:27:04;;;;;;;0.20;0.20;;;;;;;;;;7398831;19;20140;-51
2024/04/18 05:32:15;;;;;;;0.20;0.20;;;;;;;;;;7398146;19;20207;-51
2024/04/18 05:34:41;;;;;;;0.20;0.20;;;;;;;;;;7398781;19;20134;-52
2024/04/18 05:37:07;;;;;;;0.13;0.13;;;;;;;;;;7395435;19;20153;-51
2024/04/18 05:39:33;;;;;;;0.30;0.30;;;;;;;;;;7399042;19;20134;-53
2024/04/18 05:41:59;;;;;;;0.30;0.30;;;;;;;;;;7396943;19;20161;-52
2024/04/18 05:44:26;;;;;;;0.10;0.10;;;;;;;;;;7398525;19;20162;-50
2024/04/18 05:46:51;;;;;;;0.30;0.30;;;;;;;;;;7398437;19;20155;-51
2024/04/18 05:49:21;;;;;;;0.17;0.17;;;;;;;;;;7397351;19;20505;-51
2024/04/18 05:51:47;;;;;;;0.20;0.20;;;;;;;;;;7397913;19;20138;-51
2024/04/18 05:54:13;;;;;;;0.20;0.20;;;;;;;;;;7397355;19;20138;-52
2024/04/18 05:56:39;;;;;;;0.20;0.20;;;;;;;;;;7396554;19;20130;-52
2024/04/18 05:59:08;;;;;;;0.27;0.27;;;;;;;;;;7396189;19;20635;-51
2024/04/18 06:01:34;;;;;;;0.20;0.20;;;;;;;;;;7395335;19;20614;-51
2024/04/18 06:04:00;;;;;;;0.10;0.10;;;;;;;;;;7395388;19;20640;-52
2024/04/18 06:06:26;;;;;;;0.20;0.20;;;;;;;;;;7397378;19;20164;-52
2024/04/18 06:08:54;;;;;;;0.30;0.30;;;;;;;;;;7397424;19;20138;-51
2024/04/18 06:11:31;;;;;;;0.23;0.23;;;;;;;;;;7396785;19;20130;-53
2024/04/18 06:13:57;;;;;;;0.10;0.10;;;;;;;;;;7396682;19;20137;-51
2024/04/18 06:16:23;;;;;;;0.30;0.30;;;;;;;;;;7396058;19;20142;-53
2024/04/18 06:18:49;;;;;;;0.10;0.10;;;;;;;;;;7397288;19;20145;-54
2024/04/18 06:21:15;;;;;;;0.20;0.20;;;;;;;;;;7396425;19;20612;-52
2024/04/18 06:23:41;;;;;;;0.20;0.20;;;;;;;;;;7395848;19;20199;-52
2024/04/18 06:26:07;;;;;;;0.10;0.10;;;;;;;;;;7396329;19;20521;-52
2024/04/18 06:28:33;;;;;;;0.20;0.20;;;;;;;;;;7395825;19;20463;-50
2024/04/18 06:30:59;;;;;;;0.10;0.10;;;;;;;;;;7395840;19;20134;-52
2024/04/18 06:33:29;;;;;;;0.20;0.20;;;;;;;;;;7396036;19;20126;-51
2024/04/18 06:35:55;;;;;;;0.13;0.13;;;;;;;;;;7395774;19;20141;-49
2024/04/18 06:38:21;;;;;;;0.20;0.20;;;;;;;;;;7395972;19;20130;-50
2024/04/18 06:40:47;;;;;;;0.20;0.20;;;;;;;;;;7395689;19;20130;-49
2024/04/18 06:43:13;;;;;;;0.10;0.10;;;;;;;;;;7394603;19;20134;-50
2024/04/18 06:45:39;;;;;;;0.10;0.10;;;;;;;;;;7394833;19;20130;-48
2024/04/18 06:48:08;;;;;;;0.27;0.27;;;;;;;;;;7394474;19;20129;-50
2024/04/18 06:50:34;;;;;;;0.20;0.20;;;;;;;;;;7394948;19;20145;-49
2024/04/18 06:53:00;;;;;;;0.20;0.20;;;;;;;;;;7394324;19;20161;-51
2024/04/18 06:55:26;;;;;;;0.20;0.20;;;;;;;;;;7394344;19;20141;-50
2024/04/18 06:57:55;;;;;;;0.30;0.30;;;;;;;;;;7394773;19;20572;-50
2024/04/18 07:00:22;;;;;;;0.20;0.20;;;;;;;;;;7394268;19;20133;-48
2024/04/18 07:02:48;;;;;;;0.20;0.20;;;;;;;;;;7393624;19;20492;-51
2024/04/18 07:05:14;;;;;;;0.20;0.20;;;;;;;;;;7394125;19;20499;-51
2024/04/18 07:07:40;;;;;;;0.30;0.30;;;;;;;;;;7394040;19;20138;-51
2024/04/18 07:10:06;;;;;;;0.10;0.10;;;;;;;;;;7394828;19;20222;-49
2024/04/18 07:12:32;;;;;;;0.10;0.10;;;;;;;;;;7394222;19;20538;-50
2024/04/18 07:14:58;;;;;;;0.10;0.10;;;;;;;;;;7394331;19;20141;-50
2024/04/18 07:17:24;;;;;;;0.20;0.20;;;;;;;;;;7390574;19;20206;-50
2024/04/18 07:19:50;;;;;;;0.10;0.10;;;;;;;;;;7394247;19;20460;-49
2024/04/18 07:22:16;;;;;;;0.10;0.10;;;;;;;;;;7393982;19;20129;-50
2024/04/18 07:24:44;;;;;;;0.20;0.20;;;;;;;;;;7391959;19;20578;-51
2024/04/18 07:27:13;;;;;;;0.10;0.10;;;;;;;;;;7392921;19;20145;-50
2024/04/18 07:29:39;;;;;;;0.10;0.10;;;;;;;;;;7392257;19;20158;-50
2024/04/18 07:32:07;;;;;;;0.23;0.23;;;;;;;;;;7392753;19;20138;-49
2024/04/18 07:34:33;;;;;;;0.20;0.20;;;;;;;;;;7393547;19;20130;-51
2024/04/18 07:36:59;;;;;;;0.10;0.10;;;;;;;;;;7392355;19;20126;-50
2024/04/18 07:39:25;;;;;;;0.20;0.20;;;;;;;;;;7392481;19;20137;-47
2024/04/18 07:41:51;;;;;;;0.10;0.10;;;;;;;;;;7392938;19;20202;-51
2024/04/18 07:44:17;;;;;;;0.13;0.13;;;;;;;;;;7393406;19;20134;-47
2024/04/18 07:46:44;;;;;;;0.20;0.20;;;;;;;;;;7393473;19;20154;-51
2024/04/18 07:49:10;;;;;;;0.20;0.20;;;;;;;;;;7394127;19;20134;-50
2024/04/18 07:51:37;;;;;;;0.10;0.10;;;;;;;;;;7393623;19;20138;-49
2024/04/18 07:54:03;;;;;;;0.10;0.10;;;;;;;;;;7393654;19;20620;-48
2024/04/18 07:56:29;;;;;;;0.10;0.10;;;;;;;;;;7391811;19;20138;-49
2024/04/18 07:58:55;;;;;;;0.10;0.10;;;;;;;;;;7393700;19;20142;-50
2024/04/18 08:01:21;;;;;;;0.10;0.10;;;;;;;;;;7392567;19;20586;-49
2024/04/18 08:03:47;;;;;;;0.10;0.10;;;;;;;;;;7392640;19;20151;-49
2024/04/18 08:06:13;;;;;;;0.20;0.20;;;;;;;;;;7393570;19;20162;-49
2024/04/18 08:08:39;;;;;;;0.10;0.10;;;;;;;;;;7393091;19;20134;-50
2024/04/18 08:11:08;;;;;;;0.10;0.10;;;;;;;;;;7391911;19;20594;-51
2024/04/18 08:13:36;;;;;;;0.10;0.10;;;;;;;;;;7393369;19;20630;-51
2024/04/18 08:16:02;;;;;;;0.20;0.20;;;;;;;;;;7392170;19;20518;-48
2024/04/18 08:18:30;;;;;;;0.10;0.10;;;;;;;;;;7392959;19;20134;-51
2024/04/18 08:20:56;;;;;;;0.20;0.20;;;;;;;;;;7393224;19;20484;-50
2024/04/18 08:23:22;;;;;;;0.10;0.10;;;;;;;;;;7392403;19;20192;-49
2024/04/18 08:25:49;;;;;;;0.20;0.20;;;;;;;;;;7398612;19;20197;-50
2024/04/18 08:28:16;;;;;;;0.10;0.10;;;;;;;;;;7401073;19;20642;-51
2024/04/18 08:30:43;;;;;;;0.10;0.10;;;;;;;;;;7400479;19;20141;-49
2024/04/18 08:33:09;;;;;;;0.10;0.10;;;;;;;;;;7398528;19;20150;-51
2024/04/18 08:35:36;;;;;;;0.10;0.10;;;;;;;;;;7398737;19;20149;-49
2024/04/18 08:38:02;;;;;;;0.10;0.10;;;;;;;;;;7399633;19;20140;-50
2024/04/18 08:40:28;;;;;;;0.10;0.10;;;;;;;;;;7399927;19;20197;-50
2024/04/18 08:42:55;;;;;;;0.20;0.20;;;;;;;;;;7400512;19;20141;-48
2024/04/18 08:45:27;;;;;;;0.20;0.20;;;;;;;;;;7399230;19;20247;-50
2024/04/18 08:47:56;;;;;;;0.20;0.20;;;;;;;;;;7397668;19;20157;-49
2024/04/18 08:50:22;;;;;;;0.10;0.10;;;;;;;;;;7399501;19;20130;-50
2024/04/18 08:52:50;;;;;;;0.20;0.20;;;;;;;;;;7399028;19;20150;-50
2024/04/18 08:55:17;;;;;;;0.10;0.10;;;;;;;;;;7399231;19;20134;-48
2024/04/18 08:57:52;;;;;;;0.10;0.10;;;;;;;;;;7400048;19;20138;-49
2024/04/18 09:00:19;;;;;;;0.10;0.10;;;;;;;;;;7398764;19;20142;-49
2024/04/18 09:02:45;;;;;;;0.20;0.20;;;;;;;;;;7399391;19;20142;-51
2024/04/18 09:05:11;;;;;;;0.10;0.10;;;;;;;;;;7398810;19;20173;-50
2024/04/18 09:07:37;;;;;;;0.10;0.10;;;;;;;;;;7399037;19;20130;-51
2024/04/18 09:10:07;;;;;;;0.20;0.20;;;;;;;;;;7398821;19;20134;-51
2024/04/18 09:12:33;;;;;;;0.10;0.10;;;;;;;;;;7397358;19;20144;-52
2024/04/18 09:14:59;;;;;;;0.10;0.10;;;;;;;;;;7399221;19;20652;-49
2024/04/18 09:17:27;;;;;;;0.10;0.10;;;;;;;;;;7396519;19;20134;-49
2024/04/18 09:19:53;;;;;;;0.13;0.13;;;;;;;;;;7398350;19;20558;-50
2024/04/18 09:22:19;;;;;;;0.10;0.10;;;;;;;;;;7398319;19;20522;-50
2024/04/18 09:24:45;;;;;;;0.20;0.20;;;;;;;;;;7395509;19;20134;-50
2024/04/18 09:27:12;;;;;;;0.10;0.10;;;;;;;;;;7397686;19;20152;-49
2024/04/18 09:29:38;;;;;;;0.10;0.10;;;;;;;;;;7398490;19;20161;-50
2024/04/18 09:32:04;;;;;;;0.10;0.10;;;;;;;;;;7398373;19;20158;-51
2024/04/18 09:34:33;;;;;;;0.10;0.10;;;;;;;;;;7398518;19;20142;-50
2024/04/18 09:37:07;;;;;;;0.10;0.10;;;;;;;;;;7393719;19;20134;-50
2024/04/18 09:39:34;;;;;;;0.10;0.10;;;;;;;;;;7398059;19;20157;-51
2024/04/18 09:42:11;;;;;;;0.10;0.10;;;;;;;;;;7398140;19;20546;-50
2024/04/18 09:44:42;;;;;;;0.13;0.13;;;;;;;;;;7397482;19;20133;-49
2024/04/18 09:47:09;;;;;;;0.10;0.10;;;;;;;;;;7397692;19;20157;-50
2024/04/18 09:49:37;;;;;;;0.10;0.10;;;;;;;;;;7397689;19;20142;-49
2024/04/18 09:52:03;;;;;;;0.20;0.20;;;;;;;;;;7396674;19;20226;-52
2024/04/18 09:54:29;;;;;;;0.17;0.17;;;;;;;;;;7395903;19;20619;-49
2024/04/18 09:56:57;;;;;;;0.27;0.27;;;;;;;;;;7396121;19;20597;-50
2024/04/18 09:59:23;;;;;;;0.20;0.20;;;;;;;;;;7397430;19;20134;-51
2024/04/18 10:01:49;;;;;;;0.10;0.10;;;;;;;;;;7396592;19;20142;-49
2024/04/18 10:04:16;;;;;;;0.20;0.20;;;;;;;;;;7394116;19;20517;-51
2024/04/18 10:06:44;;;;;;;0.20;0.20;;;;;;;;;;7397687;19;20138;-50
2024/04/18 10:09:12;;;;;;;0.10;0.10;;;;;;;;;;7397032;19;20134;-50
2024/04/18 10:11:38;;;;;;;0.10;0.10;;;;;;;;;;7396814;19;20146;-50
2024/04/18 10:14:06;;;;;;;0.10;0.10;;;;;;;;;;7396813;19;20138;-49
2024/04/18 10:16:33;;;;;;;0.10;0.10;;;;;;;;;;7396026;19;20147;-52
2024/04/18 10:19:10;;;;;;;0.10;0.10;;;;;;;;;;7397555;19;20140;-50
2024/04/18 10:21:36;;;;;;;0.10;0.10;;;;;;;;;;7396570;19;20539;-48
2024/04/18 10:24:04;;;;;;;0.20;0.20;;;;;;;;;;7394138;19;20177;-50
2024/04/18 10:26:31;;;;;;;0.10;0.10;;;;;;;;;;7395861;19;20142;-49
2024/04/18 10:28:57;;;;;;;0.10;0.10;;;;;;;;;;7395532;19;20608;-49
2024/04/18 10:31:27;;;;;;;0.10;0.10;;;;;;;;;;7395550;19;20133;-49
2024/04/18 10:33:54;;;;;;;0.10;0.10;;;;;;;;;;7396053;19;20134;-50
2024/04/18 10:36:20;;;;;;;0.17;0.17;;;;;;;;;;7395301;19;20659;-50
2024/04/18 10:38:47;;;;;;;0.10;0.10;;;;;;;;;;7396980;19;20138;-50
2024/04/18 10:41:14;;;;;;;0.10;0.10;;;;;;;;;;7396459;19;20126;-49
2024/04/18 10:43:41;;;;;;;0.10;0.10;;;;;;;;;;7396155;19;20162;-50
2024/04/18 10:46:11;;;;;;;0.10;0.10;;;;;;;;;;7395817;19;20126;-50
2024/04/18 10:48:37;;;;;;;0.20;0.20;;;;;;;;;;7393399;19;20134;-50
2024/04/18 10:51:04;;;;;;;0.10;0.10;;;;;;;;;;7395562;19;20560;-50
2024/04/18 10:53:34;;;;;;;0.20;0.20;;;;;;;;;;7395991;19;20162;-50
2024/04/18 10:56:00;;;;;;;0.10;0.10;;;;;;;;;;7395152;19;20138;-48
2024/04/18 10:58:26;;;;;;;0.10;0.10;;;;;;;;;;7394263;19;20136;-50
2024/04/18 11:00:59;;;;;;;0.10;0.10;;;;;;;;;;7396213;19;20198;-50
2024/04/18 11:03:25;;;;;;;0.10;0.10;;;;;;;;;;7395606;19;20127;-50
2024/04/18 11:05:51;;;;;;;0.10;0.10;;;;;;;;;;7394070;19;20134;-49
2024/04/18 11:08:17;;;;;;;0.20;0.20;;;;;;;;;;7395174;19;20133;-50
2024/04/18 11:10:43;;;;;;;0.10;0.10;;;;;;;;;;7395045;19;20150;-50
2024/04/18 11:13:10;;;;;;;0.10;0.10;;;;;;;;;;7394406;19;20223;-50
2024/04/18 11:15:36;;;;;;;0.17;0.17;;;;;;;;;;7394646;19;20138;-49
2024/04/18 11:18:06;;;;;;;0.10;0.10;;;;;;;;;;7394756;19;20146;-51
2024/04/18 11:20:32;;;;;;;0.10;0.10;;;;;;;;;;7394414;19;20145;-49
2024/04/18 11:22:58;;;;;;;0.10;0.10;;;;;;;;;;7394227;19;20197;-49
2024/04/18 11:25:24;;;;;;;0.10;0.10;;;;;;;;;;7392805;19;20149;-50
2024/04/18 11:27:55;;;;;;;0.17;0.17;;;;;;;;;;7393332;19;20133;-50
2024/04/18 11:30:23;;;;;;;0.20;0.20;;;;;;;;;;7394319;19;20145;-49
2024/04/18 11:32:55;;;;;;;0.10;0.10;;;;;;;;;;7393738;19;20133;-49
2024/04/18 11:35:25;;;;;;;0.20;0.20;;;;;;;;;;7394086;19;20554;-50
2024/04/18 11:37:52;;;;;;;0.20;0.20;;;;;;;;;;7393933;19;20133;-47
2024/04/18 11:40:18;;;;;;;0.10;0.10;;;;;;;;;;7393246;19;20126;-48
2024/04/18 11:42:45;;;;;;;0.20;0.20;;;;;;;;;;7393576;19;20137;-48
2024/04/18 11:45:11;;;;;;;0.10;0.10;;;;;;;;;;7393364;19;20134;-48
2024/04/18 11:47:37;;;;;;;0.10;0.10;;;;;;;;;;7393408;19;20142;-47
2024/04/18 11:50:04;;;;;;;0.20;0.20;;;;;;;;;;7392279;19;20146;-48
2024/04/18 11:52:30;;;;;;;0.20;0.20;;;;;;;;;;7393719;19;20150;-49
2024/04/18 11:54:56;;;;;;;0.10;0.10;;;;;;;;;;7393242;19;20244;-50
2024/04/18 11:57:22;;;;;;;0.10;0.10;;;;;;;;;;7391753;19;20156;-49
2024/04/18 11:59:48;;;;;;;0.20;0.20;;;;;;;;;;7394690;19;20145;-48
2024/04/18 12:02:14;;;;;;;0.10;0.10;;;;;;;;;;7402101;19;20169;-47
2024/04/18 12:04:40;;;;;;;0.10;0.10;;;;;;;;;;7401424;19;20227;-47
2024/04/18 12:07:06;;;;;;;0.20;0.20;;;;;;;;;;7400985;19;20134;-48
2024/04/18 12:09:42;;;;;;;0.20;0.20;;;;;;;;;;7399286;19;20146;-46
2024/04/18 12:12:09;;;;;;;0.20;0.20;;;;;;;;;;7401106;19;20197;-47
2024/04/18 12:14:35;;;;;;;0.20;0.20;;;;;;;;;;7400198;19;20130;-48
2024/04/18 12:17:01;;;;;;;0.20;0.20;;;;;;;;;;7398409;19;20159;-46
2024/04/18 12:19:27;;;;;;;0.20;0.20;;;;;;;;;;7399185;19;20142;-47
2024/04/18 12:21:54;;;;;;;0.20;0.20;;;;;;;;;;7400193;19;20145;-46
2024/04/18 12:24:20;;;;;;;0.13;0.13;;;;;;;;;;7398480;19;20185;-48
2024/04/18 12:26:47;;;;;;;0.30;0.30;;;;;;;;;;7400173;19;20137;-48
2024/04/18 12:29:12;;;;;;;0.20;0.20;;;;;;;;;;7399736;19;20151;-46
2024/04/18 12:31:39;;;;;;;0.30;0.30;;;;;;;;;;7400079;19;20134;-46
2024/04/18 12:34:05;;;;;;;0.20;0.20;;;;;;;;;;7399678;19;20140;-47
2024/04/18 12:36:31;;;;;;;0.20;0.20;;;;;;;;;;7398572;19;20156;-46
2024/04/18 12:38:57;;;;;;;0.13;0.13;;;;;;;;;;7400792;19;20153;-48
2024/04/18 12:41:23;;;;;;;0.30;0.30;;;;;;;;;;7400488;19;20138;-47
2024/04/18 12:43:49;;;;;;;0.23;0.23;;;;;;;;;;7398682;19;20596;-48
2024/04/18 12:46:15;;;;;;;0.30;0.30;;;;;;;;;;7399054;19;20134;-47
2024/04/18 12:48:41;;;;;;;0.30;0.30;;;;;;;;;;7399444;19;20134;-47
2024/04/18 12:51:07;;;;;;;0.27;0.27;;;;;;;;;;7399703;19;20164;-47
2024/04/18 12:53:37;;;;;;;0.30;0.30;;;;;;;;;;7399754;19;20174;-48
2024/04/18 12:56:05;;;;;;;0.20;0.20;;;;;;;;;;7399103;19;20138;-48
2024/04/18 12:58:31;;;;;;;0.20;0.20;;;;;;;;;;7399200;19;20122;-48
2024/04/18 13:00:57;;;;;;;0.20;0.20;;;;;;;;;;7398309;19;20134;-48
2024/04/18 13:03:23;;;;;;;0.20;0.20;;;;;;;;;;7399306;19;20546;-46
2024/04/18 13:05:49;;;;;;;0.20;0.20;;;;;;;;;;7399299;19;20186;-49
2024/04/18 13:08:15;;;;;;;0.20;0.20;;;;;;;;;;7398166;19;20142;-47
2024/04/18 13:10:41;;;;;;;0.10;0.10;;;;;;;;;;7396771;19;20260;-47
2024/04/18 13:13:07;;;;;;;0.20;0.20;;;;;;;;;;7398909;19;20166;-45
2024/04/18 13:15:33;;;;;;;0.20;0.20;;;;;;;;;;7397363;19;20600;-46
2024/04/18 13:17:59;;;;;;;0.30;0.30;;;;;;;;;;7398634;19;20629;-49
2024/04/18 13:20:25;;;;;;;0.23;0.23;;;;;;;;;;7398282;19;20126;-46
2024/04/18 13:22:51;;;;;;;0.20;0.20;;;;;;;;;;7398023;19;20181;-48
2024/04/18 13:25:17;;;;;;;0.20;0.20;;;;;;;;;;7397922;19;20154;-46
2024/04/18 13:27:43;;;;;;;0.20;0.20;;;;;;;;;;7398805;19;20138;-47
2024/04/18 13:30:10;;;;;;;0.20;0.20;;;;;;;;;;7397484;19;20134;-46
2024/04/18 13:32:39;;;;;;;0.20;0.20;;;;;;;;;;7398591;19;20585;-47
2024/04/18 13:35:06;;;;;;;0.20;0.20;;;;;;;;;;7398313;19;20596;-46
2024/04/18 13:37:32;;;;;;;0.30;0.30;;;;;;;;;;7395959;19;20137;-46
2024/04/18 13:39:58;;;;;;;0.23;0.23;;;;;;;;;;7398448;19;20145;-48
2024/04/18 13:42:24;;;;;;;0.23;0.23;;;;;;;;;;7398003;19;20475;-45
2024/04/18 13:44:52;;;;;;;0.30;0.30;;;;;;;;;;7396733;19;20122;-47
2024/04/18 13:47:18;;;;;;;0.30;0.30;;;;;;;;;;7397725;19;20138;-46
2024/04/18 13:49:44;;;;;;;0.30;0.30;;;;;;;;;;7397353;19;20209;-47
2024/04/18 13:52:10;;;;;;;0.30;0.30;;;;;;;;;;7397879;19;20158;-46
2024/04/18 13:54:36;;;;;;;0.30;0.30;;;;;;;;;;7397796;19;20545;-47
2024/04/18 13:57:05;;;;;;;0.30;0.30;;;;;;;;;;7395633;19;20178;-46
2024/04/18 13:59:32;;;;;;;0.30;0.30;;;;;;;;;;7397597;19;20142;-47
2024/04/18 14:02:02;;;;;;;0.30;0.30;;;;;;;;;;7397544;19;20138;-47
2024/04/18 14:04:28;;;;;;;0.30;0.30;;;;;;;;;;7397294;19;20512;-46
2024/04/18 14:06:54;;;;;;;0.30;0.30;;;;;;;;;;7397255;19;20500;-48
2024/04/18 14:09:26;;;;;;;0.30;0.30;;;;;;;;;;7397457;19;20149;-46
2024/04/18 14:11:52;;;;;;;0.30;0.30;;;;;;;;;;7396468;19;20133;-47
2024/04/18 14:14:18;;;;;;;0.37;0.37;;;;;;;;;;7396522;19;20145;-47
2024/04/18 14:19:29;;;;;;;0.37;0.37;;;;;;;;;;7396299;19;20504;-46
2024/04/18 14:21:55;;;;;;;0.30;0.30;;;;;;;;;;7393353;19;20134;-44
2024/04/18 14:24:21;;;;;;;0.30;0.30;;;;;;;;;;7394073;19;20181;-46
2024/04/18 14:26:47;;;;;;;0.30;0.30;;;;;;;;;;7396057;19;20142;-45
2024/04/18 14:29:13;;;;;;;0.30;0.30;;;;;;;;;;7394504;19;20142;-47
2024/04/18 14:31:39;;;;;;;0.30;0.30;;;;;;;;;;7393249;19;20134;-46
2024/04/18 14:34:05;;;;;;;0.30;0.30;;;;;;;;;;7394856;19;20150;-47
2024/04/18 14:36:31;;;;;;;0.30;0.30;;;;;;;;;;7394665;19;20535;-50
2024/04/18 14:38:57;;;;;;;0.30;0.30;;;;;;;;;;7395289;19;20147;-46
2024/04/18 14:41:23;;;;;;;0.40;0.40;;;;;;;;;;7395065;19;20133;-49
2024/04/18 14:43:49;;;;;;;0.40;0.40;;;;;;;;;;7395478;19;20126;-48